sensor_id;sensor_type;location;lat;lon;timestamp;P1;durP1;ratioP1;P2;durP2;ratioP2
5343;SDS011;2694;48.950;8.970;2022-09-03T00:02:32;4.10;;;1.33;;
5343;SDS011;2694;48.950;8.970;2022-09-03T00:05:04;5.90;;;0.90;;
5343;SDS011;2694;48.950;8.970;2022-09-03T00:07:38;1.75;;;1.08;;
5343;SDS011;2694;48.950;8.970;2022-09-03T00:10:11;2.00;;;0.80;;
5343;SDS011;2694;48.950;8.970;2022-09-03T00:12:43;2.00;;;1.00;;
5343;SDS011;2694;48.950;8.970;2022-09-03T00:15:12;3.20;;;1.23;;
5343;SDS011;2694;48.950;8.970;2022-09-03T00:17:43;3.67;;;1.20;;
5343;SDS011;2694;48.950;8.970;2022-09-03T00:20:14;2.40;;;1.30;;
5343;SDS011;2694;48.950;8.970;2022-09-03T00:22:44;2.85;;;1.10;;
5343;SDS011;2694;48.950;8.970;2022-09-03T00:25:14;1.08;;;0.80;;
5343;SDS011;2694;48.950;8.970;2022-09-03T00:27:46;2.00;;;1.00;;
5343;SDS011;2694;48.950;8.970;2022-09-03T00:30:19;3.58;;;1.20;;
5343;SDS011;2694;48.950;8.970;2022-09-03T00:32:49;3.92;;;1.23;;
5343;SDS011;2694;48.950;8.970;2022-09-03T00:35:21;3.17;;;1.25;;
5343;SDS011;2694;48.950;8.970;2022-09-03T00:37:51;7.80;;;1.40;;
5343;SDS011;2694;48.950;8.970;2022-09-03T00:40:24;1.10;;;0.80;;
5343;SDS011;2694;48.950;8.970;2022-09-03T00:43:03;2.00;;;1.20;;
5343;SDS011;2694;48.950;8.970;2022-09-03T00:45:32;2.00;;;1.25;;
5343;SDS011;2694;48.950;8.970;2022-09-03T00:48:10;2.33;;;1.00;;
5343;SDS011;2694;48.950;8.970;2022-09-03T00:50:46;1.30;;;1.02;;
5343;SDS011;2694;48.950;8.970;2022-09-03T00:53:25;3.85;;;1.13;;
5343;SDS011;2694;48.950;8.970;2022-09-03T00:55:59;2.30;;;0.90;;
5343;SDS011;2694;48.950;8.970;2022-09-03T00:58:41;5.57;;;1.00;;
5343;SDS011;2694;48.950;8.970;2022-09-03T01:01:21;1.65;;;0.77;;
5343;SDS011;2694;48.950;8.970;2022-09-03T01:03:55;1.60;;;0.90;;
5343;SDS011;2694;48.950;8.970;2022-09-03T01:06:32;1.02;;;0.93;;
5343;SDS011;2694;48.950;8.970;2022-09-03T01:09:11;1.37;;;1.00;;
5343;SDS011;2694;48.950;8.970;2022-09-03T01:11:49;1.40;;;0.85;;
5343;SDS011;2694;48.950;8.970;2022-09-03T01:14:28;2.70;;;1.00;;
5343;SDS011;2694;48.950;8.970;2022-09-03T01:17:05;2.40;;;1.10;;
5343;SDS011;2694;48.950;8.970;2022-09-03T01:20:01;2.40;;;1.00;;
5343;SDS011;2694;48.950;8.970;2022-09-03T01:25:48;5.60;;;0.90;;
5343;SDS011;2694;48.950;8.970;2022-09-03T01:28:28;2.40;;;1.20;;
5343;SDS011;2694;48.950;8.970;2022-09-03T01:31:09;20.15;;;1.50;;
5343;SDS011;2694;48.950;8.970;2022-09-03T01:33:49;2.00;;;1.23;;
5343;SDS011;2694;48.950;8.970;2022-09-03T01:36:25;1.50;;;0.75;;
5343;SDS011;2694;48.950;8.970;2022-09-03T01:38:58;5.60;;;1.20;;
5343;SDS011;2694;48.950;8.970;2022-09-03T01:41:29;1.90;;;0.82;;
5343;SDS011;2694;48.950;8.970;2022-09-03T01:44:24;2.55;;;1.30;;
5343;SDS011;2694;48.950;8.970;2022-09-03T01:47:04;1.30;;;1.00;;
5343;SDS011;2694;48.950;8.970;2022-09-03T01:49:40;2.33;;;1.20;;
5343;SDS011;2694;48.950;8.970;2022-09-03T01:52:17;2.50;;;1.10;;
5343;SDS011;2694;48.950;8.970;2022-09-03T01:54:52;4.43;;;1.48;;
5343;SDS011;2694;48.950;8.970;2022-09-03T01:57:25;2.78;;;0.98;;
5343;SDS011;2694;48.950;8.970;2022-09-03T02:00:06;1.90;;;1.10;;
5343;SDS011;2694;48.950;8.970;2022-09-03T02:02:37;1.83;;;1.25;;
5343;SDS011;2694;48.950;8.970;2022-09-03T02:05:06;1.50;;;0.90;;
5343;SDS011;2694;48.950;8.970;2022-09-03T02:07:35;1.42;;;0.90;;
5343;SDS011;2694;48.950;8.970;2022-09-03T02:10:05;3.30;;;1.00;;
5343;SDS011;2694;48.950;8.970;2022-09-03T02:12:34;2.63;;;1.10;;
5343;SDS011;2694;48.950;8.970;2022-09-03T02:15:04;1.70;;;0.80;;
5343;SDS011;2694;48.950;8.970;2022-09-03T02:17:36;2.90;;;1.00;;
5343;SDS011;2694;48.950;8.970;2022-09-03T02:20:06;1.60;;;0.90;;
5343;SDS011;2694;48.950;8.970;2022-09-03T02:22:35;3.80;;;1.40;;
5343;SDS011;2694;48.950;8.970;2022-09-03T02:25:04;2.30;;;1.30;;
5343;SDS011;2694;48.950;8.970;2022-09-03T02:27:31;2.00;;;0.90;;
5343;SDS011;2694;48.950;8.970;2022-09-03T02:29:58;2.88;;;1.13;;
5343;SDS011;2694;48.950;8.970;2022-09-03T02:32:27;2.73;;;1.30;;
5343;SDS011;2694;48.950;8.970;2022-09-03T02:34:54;1.67;;;1.10;;
5343;SDS011;2694;48.950;8.970;2022-09-03T02:37:21;3.95;;;1.33;;
5343;SDS011;2694;48.950;8.970;2022-09-03T02:39:48;2.00;;;1.10;;
5343;SDS011;2694;48.950;8.970;2022-09-03T02:42:16;4.30;;;1.30;;
5343;SDS011;2694;48.950;8.970;2022-09-03T02:44:43;4.18;;;1.67;;
5343;SDS011;2694;48.950;8.970;2022-09-03T02:47:13;3.70;;;1.40;;
5343;SDS011;2694;48.950;8.970;2022-09-03T02:49:41;3.42;;;1.50;;
5343;SDS011;2694;48.950;8.970;2022-09-03T02:52:10;3.28;;;1.40;;
5343;SDS011;2694;48.950;8.970;2022-09-03T02:54:37;2.35;;;1.40;;
5343;SDS011;2694;48.950;8.970;2022-09-03T02:57:05;2.30;;;1.20;;
5343;SDS011;2694;48.950;8.970;2022-09-03T02:59:32;2.33;;;1.30;;
5343;SDS011;2694;48.950;8.970;2022-09-03T03:02:00;3.15;;;1.27;;
5343;SDS011;2694;48.950;8.970;2022-09-03T03:04:27;3.05;;;1.50;;
5343;SDS011;2694;48.950;8.970;2022-09-03T03:06:56;2.20;;;0.95;;
5343;SDS011;2694;48.950;8.970;2022-09-03T03:09:23;2.13;;;1.20;;
5343;SDS011;2694;48.950;8.970;2022-09-03T03:11:50;1.90;;;1.00;;
5343;SDS011;2694;48.950;8.970;2022-09-03T03:14:19;2.27;;;1.20;;
5343;SDS011;2694;48.950;8.970;2022-09-03T03:16:46;2.30;;;1.10;;
5343;SDS011;2694;48.950;8.970;2022-09-03T03:19:13;7.45;;;1.20;;
5343;SDS011;2694;48.950;8.970;2022-09-03T03:21:40;3.80;;;1.15;;
5343;SDS011;2694;48.950;8.970;2022-09-03T03:24:08;2.90;;;1.25;;
5343;SDS011;2694;48.950;8.970;2022-09-03T03:26:35;3.55;;;1.30;;
5343;SDS011;2694;48.950;8.970;2022-09-03T03:29:03;6.88;;;1.60;;
5343;SDS011;2694;48.950;8.970;2022-09-03T03:31:30;4.10;;;1.10;;
5343;SDS011;2694;48.950;8.970;2022-09-03T03:33:58;2.20;;;1.50;;
5343;SDS011;2694;48.950;8.970;2022-09-03T03:36:26;4.37;;;1.30;;
5343;SDS011;2694;48.950;8.970;2022-09-03T03:38:55;1.70;;;1.00;;
5343;SDS011;2694;48.950;8.970;2022-09-03T03:41:25;2.15;;;1.00;;
5343;SDS011;2694;48.950;8.970;2022-09-03T03:43:56;5.35;;;1.60;;
5343;SDS011;2694;48.950;8.970;2022-09-03T03:46:24;1.70;;;1.00;;
5343;SDS011;2694;48.950;8.970;2022-09-03T03:48:54;1.88;;;1.00;;
5343;SDS011;2694;48.950;8.970;2022-09-03T03:51:20;2.60;;;1.10;;
5343;SDS011;2694;48.950;8.970;2022-09-03T03:53:47;1.85;;;1.23;;
5343;SDS011;2694;48.950;8.970;2022-09-03T03:56:14;3.97;;;1.20;;
5343;SDS011;2694;48.950;8.970;2022-09-03T03:58:43;4.78;;;1.10;;
5343;SDS011;2694;48.950;8.970;2022-09-03T04:01:10;2.60;;;0.85;;
5343;SDS011;2694;48.950;8.970;2022-09-03T04:03:38;1.40;;;0.90;;
5343;SDS011;2694;48.950;8.970;2022-09-03T04:06:06;2.40;;;1.40;;
5343;SDS011;2694;48.950;8.970;2022-09-03T04:08:34;1.70;;;1.17;;
5343;SDS011;2694;48.950;8.970;2022-09-03T04:11:02;2.70;;;1.08;;
5343;SDS011;2694;48.950;8.970;2022-09-03T04:13:31;1.60;;;1.30;;
5343;SDS011;2694;48.950;8.970;2022-09-03T04:16:00;3.40;;;1.20;;
5343;SDS011;2694;48.950;8.970;2022-09-03T04:18:28;2.72;;;1.15;;
5343;SDS011;2694;48.950;8.970;2022-09-03T04:20:59;4.35;;;1.17;;
5343;SDS011;2694;48.950;8.970;2022-09-03T04:23:28;3.70;;;1.20;;
5343;SDS011;2694;48.950;8.970;2022-09-03T04:25:55;1.35;;;1.10;;
5343;SDS011;2694;48.950;8.970;2022-09-03T04:28:22;1.80;;;1.00;;
5343;SDS011;2694;48.950;8.970;2022-09-03T04:30:49;1.40;;;0.90;;
5343;SDS011;2694;48.950;8.970;2022-09-03T04:33:17;3.35;;;1.50;;
5343;SDS011;2694;48.950;8.970;2022-09-03T04:35:44;2.05;;;1.17;;
5343;SDS011;2694;48.950;8.970;2022-09-03T04:38:11;1.95;;;0.75;;
5343;SDS011;2694;48.950;8.970;2022-09-03T04:40:38;6.65;;;1.10;;
5343;SDS011;2694;48.950;8.970;2022-09-03T04:43:05;2.30;;;0.82;;
5343;SDS011;2694;48.950;8.970;2022-09-03T04:45:31;1.52;;;0.90;;
5343;SDS011;2694;48.950;8.970;2022-09-03T04:47:59;5.78;;;1.15;;
5343;SDS011;2694;48.950;8.970;2022-09-03T04:50:27;3.75;;;1.10;;
5343;SDS011;2694;48.950;8.970;2022-09-03T04:52:58;1.70;;;0.93;;
5343;SDS011;2694;48.950;8.970;2022-09-03T04:55:26;1.88;;;0.90;;
5343;SDS011;2694;48.950;8.970;2022-09-03T04:57:53;2.38;;;0.88;;
5343;SDS011;2694;48.950;8.970;2022-09-03T05:00:20;1.83;;;0.80;;
5343;SDS011;2694;48.950;8.970;2022-09-03T05:02:47;3.30;;;1.00;;
5343;SDS011;2694;48.950;8.970;2022-09-03T05:05:16;2.60;;;0.95;;
5343;SDS011;2694;48.950;8.970;2022-09-03T05:07:44;0.90;;;0.80;;
5343;SDS011;2694;48.950;8.970;2022-09-03T05:10:12;1.20;;;0.80;;
5343;SDS011;2694;48.950;8.970;2022-09-03T05:12:44;1.30;;;0.60;;
5343;SDS011;2694;48.950;8.970;2022-09-03T05:15:11;0.85;;;0.60;;
5343;SDS011;2694;48.950;8.970;2022-09-03T05:17:38;1.40;;;0.90;;
5343;SDS011;2694;48.950;8.970;2022-09-03T05:20:05;4.90;;;0.90;;
5343;SDS011;2694;48.950;8.970;2022-09-03T05:22:33;1.20;;;0.80;;
5343;SDS011;2694;48.950;8.970;2022-09-03T05:25:01;2.03;;;0.90;;
5343;SDS011;2694;48.950;8.970;2022-09-03T05:27:29;1.20;;;0.90;;
5343;SDS011;2694;48.950;8.970;2022-09-03T05:29:56;2.17;;;1.00;;
5343;SDS011;2694;48.950;8.970;2022-09-03T05:32:23;2.05;;;0.77;;
5343;SDS011;2694;48.950;8.970;2022-09-03T05:34:52;2.17;;;1.00;;
5343;SDS011;2694;48.950;8.970;2022-09-03T05:37:19;2.10;;;0.73;;
5343;SDS011;2694;48.950;8.970;2022-09-03T05:39:47;3.17;;;0.80;;
5343;SDS011;2694;48.950;8.970;2022-09-03T05:42:15;2.00;;;1.02;;
5343;SDS011;2694;48.950;8.970;2022-09-03T05:44:42;1.77;;;0.98;;
5343;SDS011;2694;48.950;8.970;2022-09-03T05:47:09;1.63;;;0.90;;
5343;SDS011;2694;48.950;8.970;2022-09-03T05:49:36;3.50;;;0.90;;
5343;SDS011;2694;48.950;8.970;2022-09-03T05:52:03;1.35;;;0.90;;
5343;SDS011;2694;48.950;8.970;2022-09-03T05:54:30;1.77;;;1.00;;
5343;SDS011;2694;48.950;8.970;2022-09-03T05:56:57;2.08;;;1.10;;
5343;SDS011;2694;48.950;8.970;2022-09-03T05:59:25;1.63;;;1.10;;
5343;SDS011;2694;48.950;8.970;2022-09-03T06:01:52;3.10;;;0.90;;
5343;SDS011;2694;48.950;8.970;2022-09-03T06:04:19;2.20;;;0.93;;
5343;SDS011;2694;48.950;8.970;2022-09-03T06:06:46;1.50;;;1.10;;
5343;SDS011;2694;48.950;8.970;2022-09-03T06:09:14;2.80;;;1.00;;
5343;SDS011;2694;48.950;8.970;2022-09-03T06:11:43;1.70;;;1.00;;
5343;SDS011;2694;48.950;8.970;2022-09-03T06:14:10;1.88;;;1.20;;
5343;SDS011;2694;48.950;8.970;2022-09-03T06:16:42;1.30;;;0.90;;
5343;SDS011;2694;48.950;8.970;2022-09-03T06:19:12;5.33;;;1.57;;
5343;SDS011;2694;48.950;8.970;2022-09-03T06:21:40;1.70;;;1.23;;
5343;SDS011;2694;48.950;8.970;2022-09-03T06:24:08;3.83;;;0.88;;
5343;SDS011;2694;48.950;8.970;2022-09-03T06:26:36;4.38;;;1.27;;
5343;SDS011;2694;48.950;8.970;2022-09-03T06:29:04;3.10;;;1.40;;
5343;SDS011;2694;48.950;8.970;2022-09-03T06:31:32;3.50;;;1.40;;
5343;SDS011;2694;48.950;8.970;2022-09-03T06:34:01;3.95;;;1.50;;
5343;SDS011;2694;48.950;8.970;2022-09-03T06:36:28;3.90;;;1.50;;
5343;SDS011;2694;48.950;8.970;2022-09-03T06:38:55;1.90;;;1.10;;
5343;SDS011;2694;48.950;8.970;2022-09-03T06:41:23;2.60;;;1.27;;
5343;SDS011;2694;48.950;8.970;2022-09-03T06:43:51;1.60;;;1.20;;
5343;SDS011;2694;48.950;8.970;2022-09-03T06:46:20;2.22;;;1.20;;
5343;SDS011;2694;48.950;8.970;2022-09-03T06:48:48;3.15;;;1.20;;
5343;SDS011;2694;48.950;8.970;2022-09-03T06:51:18;4.60;;;1.30;;
5343;SDS011;2694;48.950;8.970;2022-09-03T06:53:47;2.10;;;1.00;;
5343;SDS011;2694;48.950;8.970;2022-09-03T06:56:16;4.00;;;1.30;;
5343;SDS011;2694;48.950;8.970;2022-09-03T06:58:50;3.33;;;1.40;;
5343;SDS011;2694;48.950;8.970;2022-09-03T07:01:19;3.70;;;1.30;;
5343;SDS011;2694;48.950;8.970;2022-09-03T07:03:47;6.50;;;1.25;;
5343;SDS011;2694;48.950;8.970;2022-09-03T07:06:21;2.53;;;1.40;;
5343;SDS011;2694;48.950;8.970;2022-09-03T07:08:49;2.50;;;1.45;;
5343;SDS011;2694;48.950;8.970;2022-09-03T07:11:17;4.65;;;1.48;;
5343;SDS011;2694;48.950;8.970;2022-09-03T07:13:47;1.98;;;1.23;;
5343;SDS011;2694;48.950;8.970;2022-09-03T07:16:15;1.42;;;1.00;;
5343;SDS011;2694;48.950;8.970;2022-09-03T07:18:42;3.10;;;1.23;;
5343;SDS011;2694;48.950;8.970;2022-09-03T07:21:11;4.00;;;1.13;;
5343;SDS011;2694;48.950;8.970;2022-09-03T07:23:40;4.40;;;1.90;;
5343;SDS011;2694;48.950;8.970;2022-09-03T07:26:08;3.13;;;1.50;;
5343;SDS011;2694;48.950;8.970;2022-09-03T07:28:37;3.33;;;1.40;;
5343;SDS011;2694;48.950;8.970;2022-09-03T07:31:05;3.00;;;1.30;;
5343;SDS011;2694;48.950;8.970;2022-09-03T07:33:34;3.90;;;1.40;;
5343;SDS011;2694;48.950;8.970;2022-09-03T07:36:02;2.83;;;1.58;;
5343;SDS011;2694;48.950;8.970;2022-09-03T07:38:30;2.33;;;1.40;;
5343;SDS011;2694;48.950;8.970;2022-09-03T07:40:59;1.70;;;1.40;;
5343;SDS011;2694;48.950;8.970;2022-09-03T07:43:26;2.30;;;1.42;;
5343;SDS011;2694;48.950;8.970;2022-09-03T07:45:54;3.88;;;1.50;;
5343;SDS011;2694;48.950;8.970;2022-09-03T07:48:22;3.10;;;1.70;;
5343;SDS011;2694;48.950;8.970;2022-09-03T07:50:48;2.00;;;1.10;;
5343;SDS011;2694;48.950;8.970;2022-09-03T07:53:16;4.10;;;1.40;;
5343;SDS011;2694;48.950;8.970;2022-09-03T07:55:44;2.80;;;1.70;;
5343;SDS011;2694;48.950;8.970;2022-09-03T07:58:13;2.00;;;1.48;;
5343;SDS011;2694;48.950;8.970;2022-09-03T08:00:40;5.43;;;1.70;;
5343;SDS011;2694;48.950;8.970;2022-09-03T08:03:06;2.60;;;1.50;;
5343;SDS011;2694;48.950;8.970;2022-09-03T08:05:35;3.15;;;1.30;;
5343;SDS011;2694;48.950;8.970;2022-09-03T08:08:02;2.30;;;1.70;;
5343;SDS011;2694;48.950;8.970;2022-09-03T08:10:29;5.40;;;1.50;;
5343;SDS011;2694;48.950;8.970;2022-09-03T08:12:57;4.57;;;1.42;;
5343;SDS011;2694;48.950;8.970;2022-09-03T08:15:25;5.60;;;1.30;;
5343;SDS011;2694;48.950;8.970;2022-09-03T08:17:52;3.40;;;1.52;;
5343;SDS011;2694;48.950;8.970;2022-09-03T08:20:19;2.83;;;1.50;;
5343;SDS011;2694;48.950;8.970;2022-09-03T08:22:46;4.97;;;1.48;;
5343;SDS011;2694;48.950;8.970;2022-09-03T08:25:15;3.92;;;1.40;;
5343;SDS011;2694;48.950;8.970;2022-09-03T08:27:42;2.50;;;1.60;;
5343;SDS011;2694;48.950;8.970;2022-09-03T08:30:09;4.38;;;1.90;;
5343;SDS011;2694;48.950;8.970;2022-09-03T08:32:38;1.92;;;1.60;;
5343;SDS011;2694;48.950;8.970;2022-09-03T08:35:05;4.07;;;1.50;;
5343;SDS011;2694;48.950;8.970;2022-09-03T08:37:34;3.10;;;1.75;;
5343;SDS011;2694;48.950;8.970;2022-09-03T08:40:01;2.08;;;1.70;;
5343;SDS011;2694;48.950;8.970;2022-09-03T08:42:37;3.00;;;1.70;;
5343;SDS011;2694;48.950;8.970;2022-09-03T08:45:12;2.35;;;1.50;;
5343;SDS011;2694;48.950;8.970;2022-09-03T08:47:44;3.00;;;1.58;;
5343;SDS011;2694;48.950;8.970;2022-09-03T08:50:15;1.73;;;1.20;;
5343;SDS011;2694;48.950;8.970;2022-09-03T08:52:49;5.32;;;1.92;;
5343;SDS011;2694;48.950;8.970;2022-09-03T08:55:21;3.40;;;1.60;;
5343;SDS011;2694;48.950;8.970;2022-09-03T08:57:52;2.85;;;1.83;;
5343;SDS011;2694;48.950;8.970;2022-09-03T09:00:23;3.10;;;1.40;;
5343;SDS011;2694;48.950;8.970;2022-09-03T09:02:57;3.53;;;1.80;;
5343;SDS011;2694;48.950;8.970;2022-09-03T09:05:36;6.60;;;1.90;;
5343;SDS011;2694;48.950;8.970;2022-09-03T09:08:11;2.80;;;1.67;;
5343;SDS011;2694;48.950;8.970;2022-09-03T09:10:46;3.45;;;1.52;;
5343;SDS011;2694;48.950;8.970;2022-09-03T09:13:21;5.17;;;2.10;;
5343;SDS011;2694;48.950;8.970;2022-09-03T09:15:53;5.10;;;1.70;;
5343;SDS011;2694;48.950;8.970;2022-09-03T09:18:29;3.33;;;1.60;;
5343;SDS011;2694;48.950;8.970;2022-09-03T09:21:08;5.03;;;1.33;;
5343;SDS011;2694;48.950;8.970;2022-09-03T09:23:40;5.22;;;1.80;;
5343;SDS011;2694;48.950;8.970;2022-09-03T09:26:09;2.17;;;1.50;;
5343;SDS011;2694;48.950;8.970;2022-09-03T09:28:39;4.13;;;1.70;;
5343;SDS011;2694;48.950;8.970;2022-09-03T09:31:10;1.80;;;1.60;;
5343;SDS011;2694;48.950;8.970;2022-09-03T09:33:40;4.57;;;1.90;;
5343;SDS011;2694;48.950;8.970;2022-09-03T09:36:09;2.25;;;1.60;;
5343;SDS011;2694;48.950;8.970;2022-09-03T09:38:39;5.35;;;1.67;;
5343;SDS011;2694;48.950;8.970;2022-09-03T09:41:07;2.80;;;1.50;;
5343;SDS011;2694;48.950;8.970;2022-09-03T09:43:35;2.35;;;1.88;;
5343;SDS011;2694;48.950;8.970;2022-09-03T09:46:05;2.65;;;1.60;;
5343;SDS011;2694;48.950;8.970;2022-09-03T09:48:36;4.88;;;1.60;;
5343;SDS011;2694;48.950;8.970;2022-09-03T09:51:09;2.50;;;1.60;;
5343;SDS011;2694;48.950;8.970;2022-09-03T09:53:37;2.35;;;1.80;;
5343;SDS011;2694;48.950;8.970;2022-09-03T09:56:04;2.50;;;1.83;;
5343;SDS011;2694;48.950;8.970;2022-09-03T09:58:32;3.90;;;1.73;;
5343;SDS011;2694;48.950;8.970;2022-09-03T10:01:01;2.00;;;1.60;;
5343;SDS011;2694;48.950;8.970;2022-09-03T10:03:38;2.78;;;1.40;;
5343;SDS011;2694;48.950;8.970;2022-09-03T10:06:09;3.63;;;1.70;;
5343;SDS011;2694;48.950;8.970;2022-09-03T10:09:04;3.00;;;1.80;;
5343;SDS011;2694;48.950;8.970;2022-09-03T10:11:32;1.75;;;1.20;;
5343;SDS011;2694;48.950;8.970;2022-09-03T10:14:05;2.90;;;1.40;;
5343;SDS011;2694;48.950;8.970;2022-09-03T10:16:39;4.85;;;1.30;;
5343;SDS011;2694;48.950;8.970;2022-09-03T10:19:15;3.33;;;1.80;;
5343;SDS011;2694;48.950;8.970;2022-09-03T10:21:46;1.90;;;1.33;;
5343;SDS011;2694;48.950;8.970;2022-09-03T10:24:26;2.10;;;1.63;;
5343;SDS011;2694;48.950;8.970;2022-09-03T10:26:56;2.78;;;1.70;;
5343;SDS011;2694;48.950;8.970;2022-09-03T10:29:23;2.97;;;1.60;;
5343;SDS011;2694;48.950;8.970;2022-09-03T10:31:57;3.97;;;1.60;;
5343;SDS011;2694;48.950;8.970;2022-09-03T10:34:33;2.80;;;1.35;;
5343;SDS011;2694;48.950;8.970;2022-09-03T10:37:09;5.20;;;1.70;;
5343;SDS011;2694;48.950;8.970;2022-09-03T10:39:48;1.92;;;1.30;;
5343;SDS011;2694;48.950;8.970;2022-09-03T10:42:32;3.90;;;1.65;;
5343;SDS011;2694;48.950;8.970;2022-09-03T10:45:07;3.40;;;1.40;;
5343;SDS011;2694;48.950;8.970;2022-09-03T10:47:51;1.83;;;1.50;;
5343;SDS011;2694;48.950;8.970;2022-09-03T10:50:33;2.80;;;1.50;;
5343;SDS011;2694;48.950;8.970;2022-09-03T10:53:10;2.20;;;1.50;;
5343;SDS011;2694;48.950;8.970;2022-09-03T10:55:46;4.33;;;1.60;;
5343;SDS011;2694;48.950;8.970;2022-09-03T10:58:23;1.60;;;1.33;;
5343;SDS011;2694;48.950;8.970;2022-09-03T11:01:12;2.30;;;1.38;;
5343;SDS011;2694;48.950;8.970;2022-09-03T11:03:47;3.20;;;1.30;;
5343;SDS011;2694;48.950;8.970;2022-09-03T11:06:19;2.60;;;1.60;;
5343;SDS011;2694;48.950;8.970;2022-09-03T11:08:52;1.65;;;1.30;;
5343;SDS011;2694;48.950;8.970;2022-09-03T11:11:25;4.95;;;1.73;;
5343;SDS011;2694;48.950;8.970;2022-09-03T11:13:57;3.90;;;2.00;;
5343;SDS011;2694;48.950;8.970;2022-09-03T11:16:27;4.10;;;1.70;;
5343;SDS011;2694;48.950;8.970;2022-09-03T11:18:59;1.50;;;1.40;;
5343;SDS011;2694;48.950;8.970;2022-09-03T11:21:29;3.90;;;1.90;;
5343;SDS011;2694;48.950;8.970;2022-09-03T11:24:03;3.88;;;1.88;;
5343;SDS011;2694;48.950;8.970;2022-09-03T11:26:31;5.70;;;1.63;;
5343;SDS011;2694;48.950;8.970;2022-09-03T11:29:03;2.78;;;1.95;;
5343;SDS011;2694;48.950;8.970;2022-09-03T11:31:34;3.63;;;1.90;;
5343;SDS011;2694;48.950;8.970;2022-09-03T11:34:12;2.67;;;1.80;;
5343;SDS011;2694;48.950;8.970;2022-09-03T11:36:40;2.78;;;1.65;;
5343;SDS011;2694;48.950;8.970;2022-09-03T11:39:18;1.70;;;1.50;;
5343;SDS011;2694;48.950;8.970;2022-09-03T11:41:57;2.70;;;1.40;;
5343;SDS011;2694;48.950;8.970;2022-09-03T11:44:34;1.88;;;1.42;;
5343;SDS011;2694;48.950;8.970;2022-09-03T11:47:11;2.50;;;1.60;;
5343;SDS011;2694;48.950;8.970;2022-09-03T11:49:43;4.10;;;1.60;;
5343;SDS011;2694;48.950;8.970;2022-09-03T11:52:11;2.22;;;1.60;;
5343;SDS011;2694;48.950;8.970;2022-09-03T11:54:43;2.60;;;1.30;;
5343;SDS011;2694;48.950;8.970;2022-09-03T11:57:11;2.42;;;1.70;;
5343;SDS011;2694;48.950;8.970;2022-09-03T11:59:39;2.70;;;1.60;;
5343;SDS011;2694;48.950;8.970;2022-09-03T12:02:18;2.55;;;1.48;;
5343;SDS011;2694;48.950;8.970;2022-09-03T12:04:48;3.17;;;1.75;;
5343;SDS011;2694;48.950;8.970;2022-09-03T12:07:40;4.63;;;1.90;;
5343;SDS011;2694;48.950;8.970;2022-09-03T12:10:24;4.70;;;1.40;;
5343;SDS011;2694;48.950;8.970;2022-09-03T12:13:00;2.80;;;1.60;;
5343;SDS011;2694;48.950;8.970;2022-09-03T12:15:48;3.60;;;1.50;;
5343;SDS011;2694;48.950;8.970;2022-09-03T12:18:32;4.25;;;1.50;;
5343;SDS011;2694;48.950;8.970;2022-09-03T12:21:01;1.90;;;1.50;;
5343;SDS011;2694;48.950;8.970;2022-09-03T12:23:30;3.10;;;1.60;;
5343;SDS011;2694;48.950;8.970;2022-09-03T12:26:01;3.45;;;1.70;;
5343;SDS011;2694;48.950;8.970;2022-09-03T12:28:33;3.80;;;1.60;;
5343;SDS011;2694;48.950;8.970;2022-09-03T12:31:05;4.18;;;2.10;;
5343;SDS011;2694;48.950;8.970;2022-09-03T12:33:46;3.20;;;1.80;;
5343;SDS011;2694;48.950;8.970;2022-09-03T12:36:13;7.35;;;2.40;;
5343;SDS011;2694;48.950;8.970;2022-09-03T12:38:40;6.13;;;2.75;;
5343;SDS011;2694;48.950;8.970;2022-09-03T12:41:19;12.90;;;3.30;;
5343;SDS011;2694;48.950;8.970;2022-09-03T12:43:49;7.35;;;3.03;;
5343;SDS011;2694;48.950;8.970;2022-09-03T12:46:17;6.65;;;3.40;;
5343;SDS011;2694;48.950;8.970;2022-09-03T12:48:52;14.80;;;3.55;;
5343;SDS011;2694;48.950;8.970;2022-09-03T12:51:29;8.95;;;3.60;;
5343;SDS011;2694;48.950;8.970;2022-09-03T12:53:57;6.50;;;3.40;;
5343;SDS011;2694;48.950;8.970;2022-09-03T12:56:27;11.35;;;3.22;;
5343;SDS011;2694;48.950;8.970;2022-09-03T12:58:58;5.72;;;3.30;;
5343;SDS011;2694;48.950;8.970;2022-09-03T13:01:28;6.67;;;2.60;;
5343;SDS011;2694;48.950;8.970;2022-09-03T13:04:00;5.93;;;2.60;;
5343;SDS011;2694;48.950;8.970;2022-09-03T13:06:30;5.60;;;2.63;;
5343;SDS011;2694;48.950;8.970;2022-09-03T13:09:00;7.60;;;2.20;;
5343;SDS011;2694;48.950;8.970;2022-09-03T13:11:31;4.72;;;1.85;;
5343;SDS011;2694;48.950;8.970;2022-09-03T13:14:01;1.60;;;1.20;;
5343;SDS011;2694;48.950;8.970;2022-09-03T13:19:23;4.10;;;0.90;;
5343;SDS011;2694;48.950;8.970;2022-09-03T13:21:57;0.70;;;0.55;;
5343;SDS011;2694;48.950;8.970;2022-09-03T13:24:36;2.30;;;0.60;;
5343;SDS011;2694;48.950;8.970;2022-09-03T13:27:17;1.87;;;0.57;;
5343;SDS011;2694;48.950;8.970;2022-09-03T13:29:53;2.15;;;0.80;;
5343;SDS011;2694;48.950;8.970;2022-09-03T13:32:29;1.23;;;0.60;;
5343;SDS011;2694;48.950;8.970;2022-09-03T13:35:03;4.10;;;0.80;;
5343;SDS011;2694;48.950;8.970;2022-09-03T13:37:36;1.45;;;0.80;;
5343;SDS011;2694;48.950;8.970;2022-09-03T13:40:09;1.63;;;0.70;;
5343;SDS011;2694;48.950;8.970;2022-09-03T13:42:42;2.85;;;0.70;;
5343;SDS011;2694;48.950;8.970;2022-09-03T13:45:15;2.13;;;0.70;;
5343;SDS011;2694;48.950;8.970;2022-09-03T13:47:51;1.60;;;0.60;;
5343;SDS011;2694;48.950;8.970;2022-09-03T13:50:43;2.00;;;0.80;;
5343;SDS011;2694;48.950;8.970;2022-09-03T13:53:14;1.95;;;0.73;;
5343;SDS011;2694;48.950;8.970;2022-09-03T13:55:43;3.10;;;0.70;;
5343;SDS011;2694;48.950;8.970;2022-09-03T13:58:18;1.97;;;0.60;;
5343;SDS011;2694;48.950;8.970;2022-09-03T14:00:51;1.13;;;0.70;;
5343;SDS011;2694;48.950;8.970;2022-09-03T14:03:30;2.00;;;0.70;;
5343;SDS011;2694;48.950;8.970;2022-09-03T14:06:01;0.80;;;0.60;;
5343;SDS011;2694;48.950;8.970;2022-09-03T14:08:34;1.63;;;0.75;;
5343;SDS011;2694;48.950;8.970;2022-09-03T14:11:20;1.20;;;0.60;;
5343;SDS011;2694;48.950;8.970;2022-09-03T14:13:58;1.85;;;0.77;;
5343;SDS011;2694;48.950;8.970;2022-09-03T14:16:28;7.13;;;1.30;;
5343;SDS011;2694;48.950;8.970;2022-09-03T14:19:02;1.80;;;0.80;;
5343;SDS011;2694;48.950;8.970;2022-09-03T14:21:33;3.00;;;0.90;;
5343;SDS011;2694;48.950;8.970;2022-09-03T14:24:09;0.90;;;0.80;;
5343;SDS011;2694;48.950;8.970;2022-09-03T14:26:49;2.40;;;0.70;;
5343;SDS011;2694;48.950;8.970;2022-09-03T14:29:17;3.42;;;0.95;;
5343;SDS011;2694;48.950;8.970;2022-09-03T14:31:52;1.30;;;1.00;;
5343;SDS011;2694;48.950;8.970;2022-09-03T14:34:49;1.83;;;0.90;;
5343;SDS011;2694;48.950;8.970;2022-09-03T14:37:45;2.10;;;1.10;;
5343;SDS011;2694;48.950;8.970;2022-09-03T14:40:28;1.50;;;0.80;;
5343;SDS011;2694;48.950;8.970;2022-09-03T14:43:12;1.10;;;0.93;;
5343;SDS011;2694;48.950;8.970;2022-09-03T14:45:56;7.13;;;1.75;;
5343;SDS011;2694;48.950;8.970;2022-09-03T14:48:42;5.95;;;1.70;;
5343;SDS011;2694;48.950;8.970;2022-09-03T14:51:21;4.63;;;1.80;;
5343;SDS011;2694;48.950;8.970;2022-09-03T14:54:00;4.68;;;1.80;;
5343;SDS011;2694;48.950;8.970;2022-09-03T14:56:45;6.80;;;2.35;;
5343;SDS011;2694;48.950;8.970;2022-09-03T15:02:40;5.00;;;1.90;;
5343;SDS011;2694;48.950;8.970;2022-09-03T15:05:27;6.13;;;2.53;;
5343;SDS011;2694;48.950;8.970;2022-09-03T15:08:07;8.98;;;2.75;;
5343;SDS011;2694;48.950;8.970;2022-09-03T15:10:43;5.53;;;1.85;;
5343;SDS011;2694;48.950;8.970;2022-09-03T15:13:14;8.18;;;1.98;;
5343;SDS011;2694;48.950;8.970;2022-09-03T15:15:51;7.70;;;1.90;;
5343;SDS011;2694;48.950;8.970;2022-09-03T15:18:29;4.88;;;1.38;;
5343;SDS011;2694;48.950;8.970;2022-09-03T15:21:12;3.30;;;1.20;;
5343;SDS011;2694;48.950;8.970;2022-09-03T15:23:50;3.65;;;1.00;;
5343;SDS011;2694;48.950;8.970;2022-09-03T15:26:30;2.60;;;1.10;;
5343;SDS011;2694;48.950;8.970;2022-09-03T15:29:19;2.00;;;0.90;;
5343;SDS011;2694;48.950;8.970;2022-09-03T15:31:57;3.63;;;1.10;;
5343;SDS011;2694;48.950;8.970;2022-09-03T15:34:37;4.15;;;1.00;;
5343;SDS011;2694;48.950;8.970;2022-09-03T15:37:08;2.63;;;1.10;;
5343;SDS011;2694;48.950;8.970;2022-09-03T15:39:39;2.05;;;1.20;;
5343;SDS011;2694;48.950;8.970;2022-09-03T15:42:10;4.10;;;1.97;;
5343;SDS011;2694;48.950;8.970;2022-09-03T15:44:44;2.28;;;1.50;;
5343;SDS011;2694;48.950;8.970;2022-09-03T15:47:33;2.58;;;1.23;;
5343;SDS011;2694;48.950;8.970;2022-09-03T15:50:13;4.75;;;1.73;;
5343;SDS011;2694;48.950;8.970;2022-09-03T15:52:48;4.05;;;1.83;;
5343;SDS011;2694;48.950;8.970;2022-09-03T15:55:23;1.70;;;1.20;;